Brickell, Florida
Current Conditions -  °F | °C
As of 7:53 PM on Saturday 25 Oct 2014 (Local Time) from KMIA Reporting Station
Few Clouds Few Clouds  
Wind Chill: 76°   Ceiling: Unl
Heat Index: 76°   Visibility: 10mi
Dew Point: 60°   Wind: 5mph
Humidity: 58%   Direction: 40°NE
Pressure: 29.92"   Gusts: NA
Location:  25.7676°N, 80.1904°W
Report Text: KMIA 252353Z 04004KT 10SM FEW036 24/16 A2992 RMK AO2 SLP132 T02440156 10294 20244 53012
Loading
Personal Weather Stations






























Interactive Weather Map
Tropical Storm Tracking
New forecast layout! Learn more

10-Day Weather Forecast

Advertisements
Track Severe Weather on mobile